Time;durP1;ratioP1;P1;durP2;ratioP2;P2;SDS_P1;SDS_P2;PMS_P1;PMS_P2;Temp;Humidity;BMP_temperature;BMP_pressure;BME280_temperature;BME280_humidity;BME280_pressure;Samples;Min_cycle;Max_cycle;Signal;HPM_P1;HPM_P2
2022/08/27 00:01:14;;;;;;;13.93;5.57;;;;;;;23.83;63.02;98869.31;4993385;28;20665;-72
2022/08/27 00:03:42;;;;;;;16.20;5.93;;;;;;;23.84;63.00;98875.53;5006391;28;20209;-72
2022/08/27 00:06:09;;;;;;;16.07;5.53;;;;;;;23.84;63.10;98870.91;5013293;28;20213;-72
2022/08/27 00:08:36;;;;;;;11.53;5.33;;;;;;;23.81;63.21;98871.50;5012882;28;20270;-72
2022/08/27 00:11:04;;;;;;;13.33;5.40;;;;;;;23.74;63.47;98876.53;5013436;28;20246;-72
2022/08/27 00:13:31;;;;;;;17.17;5.37;;;;;;;23.74;63.72;98875.72;5013701;28;20331;-72
2022/08/27 00:15:58;;;;;;;12.17;5.47;;;;;;;23.70;63.65;98874.69;5013274;28;20196;-72
2022/08/27 00:18:25;;;;;;;9.07;5.40;;;;;;;23.68;64.06;98871.47;5012804;28;20256;-72
2022/08/27 00:20:51;;;;;;;18.40;6.17;;;;;;;23.74;63.94;98886.56;5012681;28;20197;-72
2022/08/27 00:23:18;;;;;;;10.47;5.40;;;;;;;23.77;63.98;98880.56;5013433;28;20235;-72
2022/08/27 00:25:45;;;;;;;9.70;5.70;;;;;;;23.75;63.76;98878.13;5012614;28;20237;-72
2022/08/27 00:28:14;;;;;;;15.23;5.83;;;;;;;23.79;63.70;98884.56;5013136;28;20200;-72
2022/08/27 00:30:41;;;;;;;16.03;5.80;;;;;;;23.81;63.79;98882.34;5012818;28;20200;-72
2022/08/27 00:33:08;;;;;;;14.93;5.70;;;;;;;23.86;63.57;98876.88;5012739;28;20669;-72
2022/08/27 00:35:35;;;;;;;16.37;6.00;;;;;;;23.86;63.00;98882.28;5012339;28;20208;-71
2022/08/27 00:38:02;;;;;;;11.97;6.30;;;;;;;23.79;63.18;98884.56;5011332;28;20194;-72
2022/08/27 00:40:28;;;;;;;17.33;5.43;;;;;;;23.76;63.21;98890.59;5011045;28;20722;-71
2022/08/27 00:42:55;;;;;;;23.20;5.33;;;;;;;23.65;62.61;98883.69;5011512;28;20211;-71
2022/08/27 00:45:24;;;;;;;18.03;5.40;;;;;;;23.67;63.66;98892.38;5012425;28;20249;-72
2022/08/27 00:47:54;;;;;;;12.03;5.50;;;;;;;23.68;63.61;98895.88;5012505;28;20282;-70
2022/08/27 00:50:30;;;;;;;10.30;5.60;;;;;;;23.70;63.67;98899.09;5012502;28;20204;-70
2022/08/27 00:52:59;;;;;;;8.67;4.93;;;;;;;23.72;63.54;98894.16;5013019;28;20185;-70
2022/08/27 00:55:29;;;;;;;12.47;5.53;;;;;;;23.74;63.55;98895.50;5011962;28;20719;-69
2022/08/27 00:58:04;;;;;;;8.80;5.70;;;;;;;23.74;63.38;98900.94;5012732;28;20199;-71
2022/08/27 01:00:32;;;;;;;8.53;4.93;;;;;;;23.74;63.59;98897.41;5012065;28;20185;-70
2022/08/27 01:02:59;;;;;;;13.33;5.43;;;;;;;23.70;63.65;98889.06;5011998;28;20188;-71
2022/08/27 01:05:27;;;;;;;7.73;4.73;;;;;;;23.68;63.49;98888.53;5011167;28;20648;-71
2022/08/27 01:07:57;;;;;;;14.17;5.07;;;;;;;23.70;63.44;98897.19;5012263;28;20590;-71
2022/08/27 01:10:28;;;;;;;13.70;5.93;;;;;;;23.68;63.49;98888.53;5012390;28;20279;-71
2022/08/27 01:12:55;;;;;;;10.37;5.07;;;;;;;23.70;63.55;98888.25;5012276;28;20279;-71
2022/08/27 01:15:25;;;;;;;13.40;5.10;;;;;;;23.67;63.33;98891.53;5012393;28;20192;-71
2022/08/27 01:17:55;;;;;;;13.57;5.10;;;;;;;23.59;63.42;98884.88;5012473;28;20233;-71
2022/08/27 01:20:25;;;;;;;16.57;5.90;;;;;;;23.51;63.59;98899.13;5012170;28;20663;-72
2022/08/27 01:23:00;;;;;;;16.33;6.13;;;;;;;23.46;63.22;98890.25;5012245;28;20249;-71
2022/08/27 01:25:29;;;;;;;10.83;5.60;;;;;;;23.44;63.28;98885.13;5011880;28;20188;-71
2022/08/27 01:27:58;;;;;;;14.23;5.90;;;;;;;23.43;63.28;98888.94;5013573;28;20196;-71
2022/08/27 01:30:25;;;;;;;13.97;5.20;;;;;;;23.36;63.51;98885.78;5016764;28;20332;-71
2022/08/27 01:32:52;;;;;;;18.70;6.10;;;;;;;23.38;64.11;98889.00;5016005;28;20202;-71
2022/08/27 01:35:20;;;;;;;13.00;5.70;;;;;;;23.25;64.39;98878.09;5015888;28;20748;-71
2022/08/27 01:37:50;;;;;;;9.87;5.67;;;;;;;23.17;64.98;98879.53;5015922;28;20200;-71
2022/08/27 01:40:18;;;;;;;13.47;5.53;;;;;;;23.07;65.17;98882.38;5015756;28;20725;-71
2022/08/27 01:42:50;;;;;;;14.20;6.47;;;;;;;23.00;65.63;98884.66;5015786;28;20675;-71
2022/08/27 01:45:21;;;;;;;13.67;5.30;;;;;;;23.00;65.81;98886.53;5015723;28;20645;-71
2022/08/27 01:47:47;;;;;;;6.50;5.00;;;;;;;23.00;65.90;98887.34;5016034;28;20246;-71
2022/08/27 01:50:17;;;;;;;19.00;5.73;;;;;;;22.91;66.20;98878.22;5015789;28;20192;-71
2022/08/27 01:52:45;;;;;;;13.07;5.73;;;;;;;22.85;66.56;98874.00;5015695;28;20290;-71
2022/08/27 01:55:14;;;;;;;12.47;5.50;;;;;;;22.85;66.82;98887.53;5015959;28;20283;-71
2022/08/27 01:57:41;;;;;;;17.83;6.23;;;;;;;22.75;67.61;98884.94;5015265;28;20578;-71
2022/08/27 02:00:14;;;;;;;9.27;5.60;;;;;;;22.76;67.64;98892.00;5015627;28;20252;-71
2022/08/27 02:02:41;;;;;;;7.00;5.37;;;;;;;22.80;67.50;98884.91;5011165;28;20694;-71
2022/08/27 02:05:09;;;;;;;7.93;5.20;;;;;;;22.86;67.29;98889.16;4995859;28;20279;-71
2022/08/27 02:07:36;;;;;;;13.90;5.70;;;;;;;22.87;67.11;98890.75;4996005;28;20216;-71
2022/08/27 02:10:04;;;;;;;10.67;6.20;;;;;;;22.90;67.30;98887.47;4996149;28;20194;-71
2022/08/27 02:12:31;;;;;;;13.60;5.77;;;;;;;22.85;67.36;98892.97;4995731;28;20205;-71
2022/08/27 02:14:58;;;;;;;12.83;5.47;;;;;;;22.82;67.58;98890.81;4995479;28;20245;-71
2022/08/27 02:17:26;;;;;;;21.73;5.93;;;;;;;22.82;67.40;98885.41;4995318;28;20556;-71
2022/08/27 02:19:53;;;;;;;12.57;6.00;;;;;;;22.84;67.20;98888.63;4995372;28;20248;-71
2022/08/27 02:22:20;;;;;;;13.17;5.70;;;;;;;22.86;67.12;98891.03;4995467;28;20200;-71
2022/08/27 02:24:47;;;;;;;22.47;6.07;;;;;;;22.88;66.97;98878.84;4996068;28;20281;-71
2022/08/27 02:27:13;;;;;;;12.70;6.03;;;;;;;22.85;66.66;98878.59;4995030;28;20560;-71
2022/08/27 02:29:40;;;;;;;13.47;5.83;;;;;;;22.78;66.73;98878.16;4995492;28;20227;-71
2022/08/27 02:32:07;;;;;;;8.03;5.93;;;;;;;22.68;67.22;98868.25;4995068;28;20614;-71
2022/08/27 02:34:35;;;;;;;14.63;5.30;;;;;;;22.60;67.85;98885.13;4995420;28;20246;-71
2022/08/27 02:37:02;;;;;;;12.57;5.60;;;;;;;22.54;67.95;98888.97;4994900;28;20680;-71
2022/08/27 02:39:29;;;;;;;16.47;5.97;;;;;;;22.51;68.09;98892.28;4993861;28;20194;-71
2022/08/27 02:41:55;;;;;;;14.50;6.17;;;;;;;22.46;68.38;98886.91;4995610;28;20210;-71
2022/08/27 02:44:22;;;;;;;19.10;6.23;;;;;;;22.48;68.54;98892.03;4994843;28;20219;-71
2022/08/27 02:46:49;;;;;;;13.47;5.73;;;;;;;22.50;68.39;98887.94;4995332;28;20249;-70
2022/08/27 02:49:16;;;;;;;11.37;5.40;;;;;;;22.54;68.44;98891.69;4995137;28;20195;-71
2022/08/27 02:51:44;;;;;;;10.07;5.60;;;;;;;22.50;68.36;98881.75;4995611;28;20199;-71
2022/08/27 02:54:11;;;;;;;14.90;6.27;;;;;;;22.45;68.45;98890.69;4994987;28;20206;-71
2022/08/27 02:56:39;;;;;;;11.53;5.20;;;;;;;22.35;68.86;98885.38;4994687;28;20552;-71
2022/08/27 02:59:06;;;;;;;14.70;5.33;;;;;;;22.23;69.40;98879.56;4994559;28;20207;-71
2022/08/27 03:01:32;;;;;;;15.40;6.20;;;;;;;22.22;69.50;98880.63;4995349;28;20199;-71
2022/08/27 03:03:59;;;;;;;11.57;6.00;;;;;;;22.20;69.49;98876.59;5009520;28;20222;-70
2022/08/27 03:06:26;;;;;;;15.93;6.50;;;;;;;22.11;69.92;98871.00;5014028;28;20198;-71
2022/08/27 03:08:54;;;;;;;9.87;6.20;;;;;;;22.04;70.09;98878.66;5013972;28;20198;-71
2022/08/27 03:11:22;;;;;;;12.77;6.47;;;;;;;22.06;70.32;98881.91;5013959;28;20202;-71
2022/08/27 03:13:50;;;;;;;13.90;6.57;;;;;;;21.89;70.74;98870.66;5013885;28;20229;-71
2022/08/27 03:16:16;;;;;;;7.77;5.97;;;;;;;21.96;71.01;98876.56;5013908;28;20249;-71
2022/08/27 03:18:43;;;;;;;14.53;6.70;;;;;;;22.00;70.89;98883.00;5014021;28;20256;-71
2022/08/27 03:21:16;;;;;;;12.33;6.57;;;;;;;22.01;70.77;98884.63;5014326;28;20206;-71
2022/08/27 03:23:43;;;;;;;11.50;6.10;;;;;;;22.02;71.26;98888.97;5013968;28;20190;-71
2022/08/27 03:26:12;;;;;;;13.50;5.80;;;;;;;22.05;71.09;98880.25;5014049;28;20624;-71
2022/08/27 03:28:39;;;;;;;13.27;6.23;;;;;;;22.14;70.98;98894.81;5013513;28;20673;-71
2022/08/27 03:31:08;;;;;;;18.17;6.43;;;;;;;22.08;71.32;98879.69;5013548;28;20189;-71
2022/08/27 03:33:38;;;;;;;10.37;5.80;;;;;;;22.14;71.62;98886.69;5013706;28;20269;-70
2022/08/27 03:36:06;;;;;;;13.23;5.90;;;;;;;22.16;71.77;98903.44;5014269;28;20186;-71
2022/08/27 03:38:33;;;;;;;8.30;6.10;;;;;;;22.17;71.78;98899.63;5013415;28;20665;-71
2022/08/27 03:41:00;;;;;;;10.77;5.77;;;;;;;22.17;71.99;98905.03;5014020;28;20255;-71
2022/08/27 03:43:29;;;;;;;15.23;6.60;;;;;;;22.18;71.97;98905.84;5013325;28;20194;-71
2022/08/27 03:45:55;;;;;;;11.80;6.03;;;;;;;22.19;71.93;98905.56;5013058;28;20709;-70
2022/08/27 03:48:22;;;;;;;15.97;5.83;;;;;;;22.22;71.77;98906.91;5013223;28;20661;-71
2022/08/27 03:50:50;;;;;;;18.10;7.50;;;;;;;22.25;71.51;98901.72;5013778;28;20198;-71
2022/08/27 03:53:20;;;;;;;12.77;5.67;;;;;;;22.26;71.20;98914.13;5013576;28;20237;-71
2022/08/27 03:55:47;;;;;;;14.33;6.20;;;;;;;22.24;70.75;98916.34;5014040;28;20205;-71
2022/08/27 03:58:15;;;;;;;14.67;7.07;;;;;;;22.16;70.59;98908.03;5013389;28;20625;-71
2022/08/27 04:00:43;;;;;;;19.63;6.20;;;;;;;22.09;70.62;98910.28;5013359;28;20225;-71
2022/08/27 04:03:12;;;;;;;9.80;5.37;;;;;;;22.16;70.36;98925.06;5004575;28;20199;-70
2022/08/27 04:05:39;;;;;;;13.63;6.50;;;;;;;22.08;69.83;98928.38;4994093;28;20598;-70
2022/08/27 04:08:06;;;;;;;12.53;5.93;;;;;;;22.09;69.82;98927.28;4993626;28;20195;-71
2022/08/27 04:10:33;;;;;;;12.40;6.20;;;;;;;22.07;69.63;98937.59;4994032;28;20194;-71
2022/08/27 04:12:59;;;;;;;20.83;6.40;;;;;;;22.12;69.17;98926.72;4993470;28;20205;-70
2022/08/27 04:15:26;;;;;;;18.63;6.57;;;;;;;22.19;68.54;98935.34;4993196;28;20326;-71
2022/08/27 04:17:54;;;;;;;8.43;5.63;;;;;;;22.39;68.05;98937.03;4993340;28;20737;-70
2022/08/27 04:20:21;;;;;;;12.27;5.93;;;;;;;22.52;67.06;98934.50;4993416;28;20255;-71
2022/08/27 04:22:48;;;;;;;10.10;5.53;;;;;;;22.58;66.20;98933.34;4993324;28;20206;-71
2022/08/27 04:25:15;;;;;;;10.27;5.47;;;;;;;22.74;65.36;98937.50;4992995;28;20222;-71
2022/08/27 04:27:42;;;;;;;13.93;5.53;;;;;;;23.04;64.58;98941.75;4993560;28;20225;-71
2022/08/27 04:30:09;;;;;;;10.93;5.53;;;;;;;23.31;64.18;98941.97;4993880;28;20223;-71
2022/08/27 04:32:36;;;;;;;11.07;5.70;;;;;;;23.58;62.54;98950.25;4993245;28;20204;-71
2022/08/27 04:35:06;;;;;;;15.73;5.40;;;;;;;23.92;60.64;98951.66;4992586;28;20204;-71
2022/08/27 04:37:33;;;;;;;10.80;5.17;;;;;;;24.07;59.93;98951.44;4993130;28;20279;-71
2022/08/27 04:40:00;;;;;;;16.47;6.47;;;;;;;24.28;59.23;98958.13;4992777;28;20239;-71
2022/08/27 04:42:27;;;;;;;10.10;5.93;;;;;;;24.47;58.31;98963.50;4992782;28;20695;-71
2022/08/27 04:44:53;;;;;;;15.43;5.30;;;;;;;24.71;57.66;98966.91;4992636;28;20224;-71
2022/08/27 04:47:20;;;;;;;10.43;4.77;;;;;;;24.92;56.90;98968.91;4993202;28;20259;-71
2022/08/27 04:49:47;;;;;;;17.67;5.40;;;;;;;25.14;56.33;98970.13;4992542;28;20199;-71
2022/08/27 04:52:16;;;;;;;11.53;6.33;;;;;;;25.38;55.41;98976.97;4993299;28;20194;-71
2022/08/27 04:54:43;;;;;;;11.97;5.63;;;;;;;25.63;54.46;98972.91;4992874;28;20260;-71
2022/08/27 04:57:10;;;;;;;10.67;5.00;;;;;;;25.75;53.70;98978.59;4993200;28;20202;-71
2022/08/27 04:59:37;;;;;;;9.80;5.27;;;;;;;25.65;52.93;98979.66;4992810;28;20194;-72
2022/08/27 05:02:08;;;;;;;8.13;5.33;;;;;;;25.46;53.67;98992.56;4992119;28;20668;-71
2022/08/27 05:04:35;;;;;;;13.17;5.17;;;;;;;25.17;54.67;98986.63;4993049;28;20230;-72
2022/08/27 05:07:02;;;;;;;14.53;5.10;;;;;;;24.80;55.46;98984.09;4992487;28;20202;-72
2022/08/27 05:09:30;;;;;;;9.07;5.20;;;;;;;24.59;56.25;98983.63;4992511;28;20261;-71
2022/08/27 05:11:57;;;;;;;5.60;5.00;;;;;;;24.45;57.27;98985.53;4992832;28;20206;-71
2022/08/27 05:14:28;;;;;;;18.93;5.63;;;;;;;24.23;58.01;98977.22;4993067;28;20236;-71
2022/08/27 05:16:55;;;;;;;9.83;5.03;;;;;;;24.17;59.10;98972.16;4992575;28;20277;-71
2022/08/27 05:19:22;;;;;;;21.60;5.40;;;;;;;24.14;59.40;98975.47;4992330;28;20252;-71
2022/08/27 05:21:50;;;;;;;12.10;5.80;;;;;;;24.09;59.81;98981.78;4992406;28;20197;-71
2022/08/27 05:24:18;;;;;;;9.77;5.47;;;;;;;23.95;60.55;98963.84;4992197;28;20742;-71
2022/08/27 05:26:47;;;;;;;13.63;5.90;;;;;;;24.05;60.33;98986.19;4993305;28;20193;-71
2022/08/27 05:29:14;;;;;;;50.80;8.27;;;;;;;24.04;60.35;98981.06;4992678;28;20225;-71
2022/08/27 05:31:41;;;;;;;13.10;5.77;;;;;;;23.99;61.19;98981.94;4992502;28;20198;-71
2022/08/27 05:34:08;;;;;;;20.83;6.80;;;;;;;23.90;61.54;98982.88;4992576;28;20203;-71
2022/08/27 05:36:35;;;;;;;12.63;5.27;;;;;;;23.80;61.68;98980.31;4992379;28;20247;-70
2022/08/27 05:39:05;;;;;;;14.33;5.73;;;;;;;23.77;61.94;98992.56;4992798;28;20197;-71
2022/08/27 05:41:33;;;;;;;12.63;6.50;;;;;;;23.79;61.94;98982.22;4992091;28;20197;-71
2022/08/27 05:44:03;;;;;;;12.90;6.27;;;;;;;23.84;62.26;98989.47;4992378;28;20194;-71
2022/08/27 05:46:30;;;;;;;11.73;6.00;;;;;;;23.90;62.05;98994.56;4993232;28;20251;-71
2022/08/27 05:48:58;;;;;;;10.00;5.77;;;;;;;23.95;62.50;98991.78;4992424;28;20205;-71
2022/08/27 05:51:28;;;;;;;11.23;6.10;;;;;;;24.22;61.93;98985.66;4992442;28;20202;-71
2022/08/27 05:53:57;;;;;;;16.30;5.83;;;;;;;24.46;61.72;98987.13;4992930;28;20213;-71
2022/08/27 05:56:26;;;;;;;14.73;6.23;;;;;;;24.72;60.29;98993.75;4992399;28;20260;-71
2022/08/27 06:01:41;;;;;;;12.00;5.60;;;;;;;25.46;58.25;98994.47;4992479;28;20240;-72
2022/08/27 06:04:09;;;;;;;13.70;6.40;;;;;;;26.04;56.57;99006.28;5008175;28;20197;-72
2022/08/27 06:06:37;;;;;;;13.07;6.77;;;;;;;26.61;54.38;99013.56;5011897;28;20283;-73
2022/08/27 06:09:04;;;;;;;10.33;6.00;;;;;;;26.96;53.66;99002.56;5011787;28;20712;-72
2022/08/27 06:11:31;;;;;;;20.47;6.43;;;;;;;27.53;52.01;99014.31;5011977;28;20198;-73
2022/08/27 06:13:58;;;;;;;15.00;6.50;;;;;;;28.14;50.04;99014.88;5013476;28;20607;-73
2022/08/27 06:16:25;;;;;;;17.33;6.70;;;;;;;28.74;48.43;99025.75;5014582;28;20635;-72
2022/08/27 06:18:55;;;;;;;15.87;6.27;;;;;;;29.21;46.57;99024.66;5015315;28;20277;-73
2022/08/27 06:21:22;;;;;;;9.03;5.80;;;;;;;29.25;46.64;99031.06;5014820;28;20216;-73
2022/08/27 06:23:49;;;;;;;16.50;6.33;;;;;;;29.54;45.53;99022.06;5014894;28;20252;-73
2022/08/27 06:26:18;;;;;;;14.77;5.47;;;;;;;30.08;44.89;99034.78;5014984;28;20218;-73
2022/08/27 06:28:45;;;;;;;15.30;5.77;;;;;;;30.43;44.22;99034.19;5015017;28;20289;-73
2022/08/27 06:31:13;;;;;;;12.13;5.70;;;;;;;30.68;43.17;99040.53;5014913;28;20694;-74
2022/08/27 06:33:41;;;;;;;13.03;5.60;;;;;;;30.69;42.39;99031.19;5015224;28;20264;-74
2022/08/27 06:36:12;;;;;;;22.27;5.57;;;;;;;30.86;42.38;99033.78;5014863;28;20256;-74
2022/08/27 06:38:41;;;;;;;14.93;5.53;;;;;;;31.04;42.94;99032.41;5014709;28;20370;-74
2022/08/27 06:41:09;;;;;;;14.33;5.50;;;;;;;31.07;43.00;99031.75;5014690;28;20256;-74
2022/08/27 06:43:36;;;;;;;15.77;5.87;;;;;;;31.44;42.35;99031.44;5014858;28;20248;-74
2022/08/27 06:46:04;;;;;;;16.43;5.63;;;;;;;31.71;40.84;99033.47;5014298;28;20645;-75
2022/08/27 06:48:31;;;;;;;16.60;5.40;;;;;;;32.15;40.45;99035.25;5014945;28;20194;-73
2022/08/27 06:50:59;;;;;;;15.33;5.73;;;;;;;32.58;38.55;99032.56;5014705;28;20248;-74
2022/08/27 06:53:27;;;;;;;13.17;5.00;;;;;;;33.07;37.20;99044.94;5014321;28;20190;-73
2022/08/27 06:55:54;;;;;;;13.80;5.20;;;;;;;33.39;36.67;99040.25;5014470;28;20206;-74
2022/08/27 06:58:20;;;;;;;15.98;5.55;;;;;;;33.74;35.26;99037.53;5014561;28;20232;-74
2022/08/27 07:00:47;;;;;;;29.02;10.15;;;;;;;33.96;35.02;99028.63;5014083;28;20662;-74
2022/08/27 07:03:14;;;;;;;14.75;5.25;;;;;;;34.11;34.57;99030.50;5005386;28;20198;-74
2022/08/27 07:05:41;;;;;;;10.32;5.25;;;;;;;34.11;34.41;99031.31;4994453;28;20775;-74
2022/08/27 07:08:08;;;;;;;10.38;5.00;;;;;;;33.95;34.46;99029.75;4994504;28;20725;-74
2022/08/27 07:10:37;;;;;;;11.02;4.93;;;;;;;33.69;34.92;99029.53;4995224;28;20191;-74
2022/08/27 07:13:04;;;;;;;12.70;5.23;;;;;;;33.29;35.62;99025.03;4994683;28;20253;-74
2022/08/27 07:15:31;;;;;;;16.40;5.23;;;;;;;33.52;35.71;99027.97;4994776;28;20285;-74
2022/08/27 07:17:59;;;;;;;22.17;5.88;;;;;;;33.70;35.37;99026.44;4994806;28;20265;-74
2022/08/27 07:20:25;;;;;;;16.98;6.15;;;;;;;34.08;34.50;99031.25;4994476;28;20201;-73
2022/08/27 07:22:53;;;;;;;25.63;6.18;;;;;;;34.29;34.17;99029.69;4994152;28;20630;-74
2022/08/27 07:25:20;;;;;;;10.00;5.03;;;;;;;34.24;33.85;99031.94;4993614;28;20284;-75
2022/08/27 07:27:49;;;;;;;12.98;4.80;;;;;;;34.04;34.26;99022.09;4994949;28;20641;-74
2022/08/27 07:30:17;;;;;;;14.82;5.35;;;;;;;34.24;34.44;99026.44;4994599;28;20726;-76
2022/08/27 07:32:45;;;;;;;13.88;5.68;;;;;;;34.62;34.44;99023.69;4994166;28;20199;-75
2022/08/27 07:35:13;;;;;;;20.77;5.07;;;;;;;35.03;32.96;99025.66;4994165;28;20249;-76
2022/08/27 07:37:41;;;;;;;15.45;5.22;;;;;;;35.17;32.47;99023.94;4994107;28;20249;-77
2022/08/27 07:40:11;;;;;;;14.57;5.10;;;;;;;35.35;31.90;99032.56;4993715;28;20199;-76
2022/08/27 07:45:24;;;;;;;21.95;5.38;;;;;;;35.82;31.18;99030.16;4993413;28;20222;-77
2022/08/27 07:47:52;;;;;;;14.43;4.95;;;;;;;35.98;31.14;99022.47;4993837;28;20195;-74
2022/08/27 07:50:19;;;;;;;12.82;4.82;;;;;;;36.17;29.98;99025.88;4993283;28;20190;-76
2022/08/27 07:52:46;;;;;;;8.27;4.78;;;;;;;36.28;30.15;99023.28;4993497;28;20194;-77
2022/08/27 07:55:14;;;;;;;18.40;6.03;;;;;;;36.25;30.23;99021.28;4992946;28;20191;-74
2022/08/27 07:57:40;;;;;;;12.77;4.78;;;;;;;36.26;29.23;99023.66;4993679;28;20198;-75
2022/08/27 08:00:09;;;;;;;14.63;4.72;;;;;;;36.33;29.63;99012.66;4993714;28;20201;-79
2022/08/27 08:02:38;;;;;;;18.58;5.35;;;;;;;36.38;29.74;99009.56;4996549;28;20252;-75
2022/08/27 08:05:06;;;;;;;12.23;4.95;;;;;;;36.29;29.13;99016.59;5013237;28;20198;-78
2022/08/27 08:07:34;;;;;;;9.48;4.25;;;;;;;36.31;29.12;99019.75;5013256;28;20268;-79
2022/08/27 08:10:01;;;;;;;10.52;3.97;;;;;;;36.27;27.49;99024.44;5013154;28;20193;-78
2022/08/27 08:12:28;;;;;;;11.52;4.18;;;;;;;36.17;28.04;99014.03;5013146;28;20763;-77
2022/08/27 08:14:56;;;;;;;15.35;4.70;;;;;;;36.44;28.11;99019.13;5011013;28;20244;-77
2022/08/27 08:17:24;;;;;;;14.80;4.32;;;;;;;36.57;27.45;99027.97;5010811;28;20198;-74
2022/08/27 08:19:52;;;;;;;10.98;4.05;;;;;;;36.56;27.55;99020.84;5010843;28;20292;-76
2022/08/27 08:22:19;;;;;;;13.05;4.25;;;;;;;36.66;27.17;99017.41;5010985;28;20217;-78
2022/08/27 08:24:46;;;;;;;12.73;4.07;;;;;;;36.73;26.48;99014.72;5011145;28;20194;-73
2022/08/27 08:27:13;;;;;;;10.80;4.63;;;;;;;36.89;26.73;99013.31;5010594;28;20697;-72
2022/08/27 08:29:40;;;;;;;14.23;3.90;;;;;;;37.08;25.97;99015.06;5011888;28;20721;-77
2022/08/27 08:32:07;;;;;;;15.35;4.40;;;;;;;37.18;26.79;99011.59;5012784;28;20197;-74
2022/08/27 08:34:35;;;;;;;22.80;4.95;;;;;;;36.97;26.66;99005.84;5012469;28;20194;-74
2022/08/27 08:37:03;;;;;;;11.73;4.20;;;;;;;36.80;27.28;99010.06;5011888;28;20208;-78
2022/08/27 08:39:30;;;;;;;8.48;3.80;;;;;;;37.03;25.81;99012.66;5013400;28;20201;-78
2022/08/27 08:42:00;;;;;;;10.75;3.72;;;;;;;37.28;25.77;99008.16;5013045;28;20271;-77
2022/08/27 08:44:31;;;;;;;6.47;3.83;;;;;;;37.53;26.35;99014.66;5012821;28;20247;-77
2022/08/27 08:47:03;;;;;;;9.73;3.80;;;;;;;37.64;25.22;99020.31;5012336;28;20716;-77
2022/08/27 08:49:38;;;;;;;16.58;4.90;;;;;;;37.33;25.89;99016.09;5012677;28;20212;-75
2022/08/27 08:52:16;;;;;;;11.02;4.10;;;;;;;37.10;25.63;99012.69;5012491;28;20189;-78
2022/08/27 08:54:43;;;;;;;10.88;4.30;;;;;;;37.08;26.36;99009.53;5012965;28;20186;-74
2022/08/27 08:57:20;;;;;;;17.38;4.22;;;;;;;37.02;26.79;99008.28;5012402;28;20205;-75
2022/08/27 08:59:57;;;;;;;18.73;4.38;;;;;;;37.08;26.17;99009.53;5012225;28;20190;-75
2022/08/27 09:02:23;;;;;;;13.10;3.90;;;;;;;37.07;25.94;99005.19;5010260;28;20248;-76
2022/08/27 09:04:50;;;;;;;14.85;3.15;;;;;;;37.18;25.54;99008.84;4992627;28;20255;-77
2022/08/27 09:07:27;;;;;;;10.98;3.83;;;;;;;36.99;25.61;99011.81;4992443;28;20280;-77
2022/08/27 09:10:03;;;;;;;10.68;3.63;;;;;;;37.05;26.21;99010.28;4993481;28;20241;-77
2022/08/27 09:12:32;;;;;;;13.68;3.08;;;;;;;37.28;25.75;99007.34;4993017;28;20194;-77
2022/08/27 09:15:03;;;;;;;7.30;3.55;;;;;;;37.37;24.85;99016.91;4992407;28;20205;-77
2022/08/27 09:17:30;;;;;;;9.45;3.22;;;;;;;37.31;25.15;99004.59;4992470;28;20326;-74
2022/08/27 09:19:57;;;;;;;6.15;2.90;;;;;;;37.46;24.96;99003.53;4992306;28;20198;-74
2022/08/27 09:22:42;;;;;;;8.52;3.20;;;;;;;37.69;24.42;99004.13;4992310;28;20249;-74
2022/08/27 09:25:19;;;;;;;10.68;3.50;;;;;;;37.88;24.18;99006.56;4992645;28;20183;-75
2022/08/27 09:27:48;;;;;;;12.73;3.65;;;;;;;38.03;23.37;99019.38;4992476;28;20214;-76
2022/08/27 09:30:21;;;;;;;11.10;3.22;;;;;;;38.13;23.97;99004.75;4992081;28;20230;-76
2022/08/27 09:32:55;;;;;;;11.50;3.05;;;;;;;38.12;23.41;98996.84;4992541;28;20191;-76
2022/08/27 09:35:23;;;;;;;20.85;4.22;;;;;;;38.27;23.18;99001.25;4992590;28;20655;-76
2022/08/27 09:37:54;;;;;;;10.05;3.47;;;;;;;38.24;23.44;98997.25;4992001;28;20555;-76
2022/08/27 09:40:30;;;;;;;11.73;3.05;;;;;;;38.01;23.23;99002.31;4992113;28;20718;-76
2022/08/27 09:43:04;;;;;;;6.50;3.20;;;;;;;37.95;22.87;98991.94;4992096;28;20273;-76
2022/08/27 09:45:31;;;;;;;31.33;4.82;;;;;;;37.73;23.78;98991.06;4992324;28;20221;-76
2022/08/27 09:48:06;;;;;;;6.50;3.03;;;;;;;37.74;23.71;99003.75;4992235;28;20334;-76
2022/08/27 09:50:37;;;;;;;12.73;3.33;;;;;;;37.87;23.16;98993.91;4996633;28;20218;-76
2022/08/27 09:53:19;;;;;;;9.68;3.50;;;;;;;38.00;23.99;98994.38;4996160;28;20191;-76
2022/08/27 09:55:49;;;;;;;10.75;3.83;;;;;;;38.04;23.34;98996.00;4996570;28;20278;-75
2022/08/27 09:58:21;;;;;;;11.80;3.65;;;;;;;38.11;23.40;98996.03;4995916;28;20249;-76
2022/08/27 10:00:49;;;;;;;13.57;3.38;;;;;;;38.23;22.99;98990.13;4996058;28;20191;-75
2022/08/27 10:03:22;;;;;;;9.75;3.17;;;;;;;38.43;22.81;98999.72;5004374;28;20279;-75
2022/08/27 10:05:50;;;;;;;7.10;3.35;;;;;;;38.34;22.12;98996.53;5015818;28;20186;-76
2022/08/27 10:08:27;;;;;;;4.85;3.03;;;;;;;38.26;21.79;98997.69;5015355;28;20244;-75
2022/08/27 10:10:57;;;;;;;11.68;3.88;;;;;;;38.43;21.33;98994.16;5015909;28;20280;-75
2022/08/27 10:13:28;;;;;;;9.60;2.78;;;;;;;38.55;21.46;98981.91;5015048;28;20198;-76
2022/08/27 10:16:08;;;;;;;12.68;3.80;;;;;;;38.58;21.57;98983.91;5015508;28;20208;-76
2022/08/27 10:18:43;;;;;;;11.73;3.53;;;;;;;38.65;21.28;98987.50;5015192;28;20277;-76
2022/08/27 10:21:22;;;;;;;18.42;3.50;;;;;;;38.86;21.06;98992.31;5015462;28;20627;-76
2022/08/27 10:24:05;;;;;;;13.45;3.88;;;;;;;38.84;21.81;98984.34;5015024;28;20182;-72
2022/08/27 10:26:39;;;;;;;6.68;3.88;;;;;;;38.83;21.03;98993.88;5015011;28;20692;-72
2022/08/27 10:29:14;;;;;;;13.77;3.38;;;;;;;38.65;20.75;98981.16;5014596;28;20279;-71
2022/08/27 10:32:02;;;;;;;6.43;2.72;;;;;;;38.57;21.17;98990.66;5014759;28;20619;-71
2022/08/27 10:34:38;;;;;;;9.25;3.40;;;;;;;38.70;21.69;98981.53;5014839;28;20190;-72
2022/08/27 10:37:17;;;;;;;9.98;3.25;;;;;;;38.85;21.84;98985.94;5014780;28;20186;-72
2022/08/27 10:40:02;;;;;;;12.02;3.30;;;;;;;38.77;21.94;98976.00;5015502;28;20182;-75
2022/08/27 10:42:35;;;;;;;8.85;3.40;;;;;;;38.79;21.18;98978.41;5014782;28;20197;-75
2022/08/27 10:45:16;;;;;;;16.45;3.58;;;;;;;38.70;21.65;98983.56;5014485;28;20678;-72
2022/08/27 10:47:55;;;;;;;10.57;3.08;;;;;;;38.67;21.08;98974.03;5015071;28;20214;-72
2022/08/27 10:50:29;;;;;;;9.73;3.40;;;;;;;38.62;21.09;98982.72;5014390;28;20194;-72
2022/08/27 10:53:01;;;;;;;10.80;3.75;;;;;;;38.54;20.81;98983.91;5014647;28;20201;-72
2022/08/27 10:55:32;;;;;;;10.70;3.13;;;;;;;38.31;21.46;98977.88;5014302;28;20217;-72
2022/08/27 10:58:22;;;;;;;15.43;3.38;;;;;;;38.24;21.23;98972.28;5014385;28;20190;-72
2022/08/27 11:00:58;;;;;;;16.30;3.35;;;;;;;38.26;21.51;98969.13;5013025;28;20727;-72
2022/08/27 11:03:31;;;;;;;34.03;11.57;;;;;;;38.37;22.09;98976.28;5003846;28;20187;-73
2022/08/27 11:06:02;;;;;;;15.40;3.10;;;;;;;38.46;20.10;98976.69;4995853;28;20274;-72
2022/08/27 11:08:37;;;;;;;19.33;3.92;;;;;;;38.46;20.73;98967.59;4994527;28;20227;-72
2022/08/27 11:11:10;;;;;;;13.20;3.78;;;;;;;38.20;20.87;98968.72;4994821;28;20193;-72
2022/08/27 11:13:45;;;;;;;21.63;4.38;;;;;;;38.23;21.60;98965.16;4995001;28;20282;-72
2022/08/27 11:16:23;;;;;;;55.15;20.48;;;;;;;38.22;21.05;98963.56;4995278;28;20273;-72
2022/08/27 11:18:54;;;;;;;17.92;3.90;;;;;;;38.25;21.31;98960.00;4994393;28;20190;-72
2022/08/27 11:21:33;;;;;;;11.20;3.42;;;;;;;38.08;21.07;98966.28;4994223;28;20365;-72
2022/08/27 11:24:06;;;;;;;14.95;3.33;;;;;;;37.97;22.32;98957.09;4994288;28;20629;-71
2022/08/27 11:26:39;;;;;;;12.18;3.40;;;;;;;37.75;21.94;98960.94;4993777;28;20265;-72
2022/08/27 11:29:14;;;;;;;15.32;4.18;;;;;;;37.77;21.09;98961.38;4994623;28;20233;-72
2022/08/27 11:31:49;;;;;;;15.15;4.25;;;;;;;37.75;22.41;98954.63;4994004;28;20190;-72
2022/08/27 11:34:25;;;;;;;14.05;6.10;;;;;;;37.61;21.59;98949.78;4993933;28;20719;-72
2022/08/27 11:37:27;;;;;;;8.40;3.47;;;;;;;37.62;20.93;98945.81;4994779;28;20194;-72
2022/08/27 11:40:16;;;;;;;10.77;4.22;;;;;;;37.49;21.35;98941.78;4992844;28;20198;-74
2022/08/27 11:42:49;;;;;;;21.88;10.38;;;;;;;37.48;20.97;98937.41;4993521;28;20669;-73